• Join FlightAware (Why Join?)
  • Login
  • US Flag 
08:08PM EST


 

Airport Tracker/Info


-or-


 

Live Flight TrackerFlight Track Log ✈ OPT410 ✈ 07-Jul-2013 ✈ KEYE - KRFD

Flight Track Log - Related Links

Times and Time Zones

All times are in EDT time to prevent confusion due to time zone crossing. See the OPT410 flight status page for this flight to view local times or setup timezone preferences in your user account.

Time Position Orientation Groundspeed Altitude Reporting Facility
EDT Latitude Longitude Course Direction KTS MPH feet Rate Location/Type
05:27PM 39.8167 -86.3000 303° West 129 148 1,600  Level Indianapolis TRACON
05:28PM 39.8333 -86.3333 303° West 202 232 2,700 2,220 Climbing Indianapolis TRACON
05:30PM 39.9147 -86.3433 355° North 225 259 6,500 3,120 Climbing Indianapolis Center
05:31PM 39.9836 -86.3450 359° North 243 280 10,400 3,360 Climbing Indianapolis Center
05:32PM 40.0433 -86.3828 334° Northwest 261 300 13,400 2,700 Climbing Indianapolis Center
05:33PM 40.1008 -86.4572 315° West 289 333 16,000 2,880 Climbing Indianapolis Center
05:33PM 40.1678 -86.5258 322° Northwest 303 349 18,800 2,160 Climbing Chicago Center
05:34PM 40.2383 -86.5900 325° Northwest 308 354 20,000 540 Climbing Chicago Center
05:36PM 40.3108 -86.6556 325° Northwest 316 364 20,000  Level Chicago Center
05:37PM 40.3769 -86.7206 323° Northwest 302 348 20,000  Level Chicago Center
05:38PM 40.4397 -86.7817 323° Northwest 288 331 20,000  Level Chicago Center
05:39PM 40.4944 -86.8550 314° West 283 326 20,000  Level Chicago Center
05:40PM 40.5586 -86.9425 314° West 278 320 20,000  Level Chicago Center
05:41PM 40.6128 -87.0150 315° West 278 320 20,000  Level Chicago Center
05:42PM 40.6650 -87.0892 313° West 278 320 20,000  Level Chicago Center
05:43PM 40.7231 -87.1678 314° West 277 319 20,000  Level Chicago Center
05:44PM 40.7764 -87.2411 314° West 279 321 20,000  Level Chicago Center
05:45PM 40.8297 -87.3147 314° West 280 322 20,000 -300 Level Chicago Center
05:46PM 40.8814 -87.3933 311° West 285 328 19,400 -840 Descending Chicago Center
05:47PM 40.9386 -87.4936 307° West 286 329 18,300 -720 Descending Chicago Center
05:48PM 40.9853 -87.5789 306° West 288 331 18,000 -180 Descending Chicago Center
05:49PM 41.0286 -87.6600 305° West 274 315 18,000  Level Chicago Center
05:50PM 41.0728 -87.7397 306° West 270 311 18,000  Level Chicago Center
05:51PM 41.1167 -87.8189 306° West 268 308 18,000  Level Chicago Center
05:52PM 41.1683 -87.9119 306° West 265 305 18,000  Level Chicago Center
05:53PM 41.2111 -87.9906 306° West 263 303 18,000  Level Chicago Center
05:54PM 41.2544 -88.0697 306° West 264 304 18,000  Level Chicago Center
05:55PM 41.3006 -88.1556 306° West 282 325 18,000  Level Chicago Center
05:56PM 41.3478 -88.2422 306° West 286 329 18,000  Level Chicago Center
05:57PM 41.3939 -88.3281 306° West 284 327 18,000 -960 Level Chicago Center
05:58PM 41.4542 -88.4383 306° West 308 354 16,100 -1,740 Descending Chicago Center
05:59PM 41.5100 -88.5425 306° West 339 390 14,400 -1,020 Descending Chicago Center
06:00PM 41.5642 -88.6439 306° West 340 391 14,000 -240 Descending Chicago Center
06:01PM 41.6100 -88.7311 305° West 297 342 14,000  Level Chicago Center
06:02PM 41.6539 -88.8122 306° West 275 316 14,000 -660 Level Chicago Center
06:03PM 41.7108 -88.8792 319° Northwest 297 342 12,700 -1,920 Descending Chicago Center
06:05PM 41.8031 -88.9197 342° North 295 339 10,100 -1,980 Descending Chicago Center
06:06PM 41.8767 -88.9536 341° North 282 325 8,600 -1,440 Descending Chicago Center
06:07PM 41.9458 -88.9850 341° North 267 307 7,100 -1,500 Descending Chicago Center
06:08PM 42.0147 -88.9897 357° North 268 308 5,600 -1,500 Descending Chicago Center
06:09PM 42.0850 -88.9736 10° North 244 281 4,000 -1,440 Descending Chicago Center
06:10PM 42.1528 -88.9794 356° North 244 281 2,700 -960 Descending Chicago Center
06:11PM 42.2075 -89.0167 333° Northwest 227 261 2,100 -600 Descending Chicago Center
06:13PM 42.1833 -89.0833 North  Level FlightAware Approximate
06:20PM 42.1954 -89.0972 North  Level Estimated
06:21PM 42.1954 -89.0972 North  Level Estimated
06:22PM 42.1954 -89.0972 North  Level Estimated
06:23PM 42.1954 -89.0972 North  Level Estimated
06:24PM 42.1954 -89.0972 North  Level Estimated
06:25PM 42.1954 -89.0972 North  Level Estimated
06:26PM 42.1954 -89.0972 North  Level Estimated
06:27PM 42.1954 -89.0972 North  Level Estimated
06:28PM 42.1954 -89.0972 North  Level Estimated
06:29PM 42.1954 -89.0972 North  Level Estimated